Time;durP1;ratioP1;P1;durP2;ratioP2;P2;SDS_P1;SDS_P2;PMS_P1;PMS_P2;Temp;Humidity;BMP_temperature;BMP_pressure;BME280_temperature;BME280_humidity;BME280_pressure;Samples;Min_cycle;Max_cycle;Signal;HPM_P1;HPM_P2
2022/08/23 00:02:23;;;;;;;14.40;7.00;;;;;;;21.74;69.79;100128.36;105614;1282;25324;-72
2022/08/23 00:04:51;;;;;;;19.20;8.30;;;;;;;21.74;69.83;100131.75;105405;1282;26540;-74
2022/08/23 00:07:39;;;;;;;16.70;7.10;;;;;;;21.77;69.84;100134.49;105487;1282;24342;-73
2022/08/23 00:10:12;;;;;;;19.30;8.70;;;;;;;21.77;69.89;100133.97;105734;1284;22548;-72
2022/08/23 00:12:39;;;;;;;18.50;7.70;;;;;;;21.77;69.92;100138.98;105962;1279;24242;-72
2022/08/23 00:15:08;;;;;;;19.30;7.70;;;;;;;21.75;69.87;100134.79;105798;1277;22576;-74
2022/08/23 00:17:35;;;;;;;16.50;7.40;;;;;;;21.74;70.07;100133.77;105645;1279;25259;-75
2022/08/23 00:20:05;;;;;;;20.10;7.40;;;;;;;21.73;70.20;100133.45;106035;1276;26540;-74
2022/08/23 00:22:31;;;;;;;20.20;7.50;;;;;;;21.73;70.10;100131.67;105696;1276;22572;-71
2022/08/23 00:24:58;;;;;;;14.60;7.70;;;;;;;21.72;70.04;100127.43;105758;1276;22669;-77
2022/08/23 00:27:25;;;;;;;20.50;7.40;;;;;;;21.71;70.32;100126.26;105764;1276;22550;-73
2022/08/23 00:29:54;;;;;;;20.60;8.50;;;;;;;21.69;70.08;100126.52;105943;1274;25373;-74
2022/08/23 00:32:28;;;;;;;13.10;7.10;;;;;;;21.66;70.25;100120.82;105989;1276;22547;-74
2022/08/23 00:34:54;;;;;;;20.70;8.40;;;;;;;21.63;70.31;100115.44;105642;1278;23004;-69
2022/08/23 00:37:22;;;;;;;16.80;7.70;;;;;;;21.57;70.28;100114.33;105602;1276;22549;-71
2022/08/23 00:39:49;;;;;;;17.10;7.60;;;;;;;21.57;70.65;100119.17;105691;1276;22562;-71
2022/08/23 00:48:32;;;;;;;16.00;7.50;;;;;;;21.57;70.84;100133.37;106075;1276;22573;-72
2022/08/23 00:51:11;;;;;;;21.60;7.90;;;;;;;21.53;70.77;100126.39;106071;1276;22844;-78
2022/08/23 00:53:46;;;;;;;21.30;7.30;;;;;;;21.45;70.75;100123.79;105909;1276;22532;-73
2022/08/23 00:56:16;;;;;;;19.80;7.80;;;;;;;21.45;71.17;100132.44;105844;1277;25728;-74
2022/08/23 00:58:45;;;;;;;19.60;7.70;;;;;;;21.46;71.25;100138.98;105628;1276;22583;-72
2022/08/23 01:01:13;;;;;;;18.10;7.60;;;;;;;21.47;71.19;100144.14;105855;1279;25890;-71
2022/08/23 01:03:43;;;;;;;24.70;8.30;;;;;;;21.46;71.26;100151.52;105876;1276;25223;-72
2022/08/23 01:06:18;;;;;;;17.00;8.60;;;;;;;21.47;71.36;100151.84;105714;1276;24391;-76
2022/08/23 01:09:05;;;;;;;15.60;8.00;;;;;;;21.46;71.37;100154.39;105740;1278;22704;-74
2022/08/23 01:11:40;;;;;;;17.10;7.50;;;;;;;21.47;71.36;100153.63;105180;1279;22716;-68
2022/08/23 01:14:21;;;;;;;20.70;7.50;;;;;;;21.47;71.25;100157.91;105586;1278;25318;-70
2022/08/23 01:16:54;;;;;;;16.70;7.40;;;;;;;21.50;71.46;100162.23;105575;1279;24374;-71
2022/08/23 01:19:33;;;;;;;16.80;7.60;;;;;;;21.53;71.54;100156.13;105526;1279;22564;-68
2022/08/23 01:22:26;;;;;;;21.00;7.70;;;;;;;21.58;71.63;100151.55;105381;1279;23944;-70
2022/08/23 01:24:54;;;;;;;12.80;6.50;;;;;;;21.58;71.39;100163.55;105610;1279;22559;-68
2022/08/23 01:27:39;;;;;;;17.40;7.60;;;;;;;21.62;71.52;100192.85;105720;1279;22651;-69
2022/08/23 01:30:10;;;;;;;24.80;8.00;;;;;;;21.66;71.47;100204.29;105584;1279;22556;-73
2022/08/23 01:32:45;;;;;;;26.50;9.10;;;;;;;21.69;71.33;100211.44;105030;1284;22636;-74
2022/08/23 01:35:12;;;;;;;17.90;8.40;;;;;;;21.65;71.17;100205.95;105194;1282;25721;-71
2022/08/23 01:37:40;;;;;;;19.80;7.50;;;;;;;21.64;71.34;100202.24;105409;1282;22656;-71
2022/08/23 01:40:08;;;;;;;17.50;7.20;;;;;;;21.65;71.50;100202.55;105271;1282;25486;-70
2022/08/23 01:42:34;;;;;;;23.10;7.90;;;;;;;21.67;71.56;100195.11;105344;1282;26631;-71
2022/08/23 01:45:26;;;;;;;19.80;7.70;;;;;;;21.65;71.62;100193.98;105078;1282;22576;-73
2022/08/23 01:47:53;;;;;;;18.70;7.80;;;;;;;21.65;71.78;100195.36;105412;1282;22548;-72
2022/08/23 01:50:21;;;;;;;19.30;7.90;;;;;;;21.68;71.99;100197.57;105462;1276;22555;-68
2022/08/23 01:52:47;;;;;;;28.60;7.70;;;;;;;21.67;72.00;100191.17;105575;1278;22708;-71
2022/08/23 01:55:17;;;;;;;18.50;8.00;;;;;;;21.65;72.20;100193.07;105546;1276;25644;-67
2022/08/23 01:57:47;;;;;;;19.20;7.60;;;;;;;21.65;72.19;100199.33;106186;1276;25332;-71
2022/08/23 02:00:18;;;;;;;14.80;8.20;;;;;;;21.64;72.58;100199.71;105900;1276;25443;-69
2022/08/23 02:02:45;;;;;;;17.70;7.90;;;;;;;21.63;72.64;100205.16;105925;1276;25228;-68
2022/08/23 02:05:12;;;;;;;18.70;7.90;;;;;;;21.61;72.91;100204.77;105974;1276;25438;-75
2022/08/23 02:07:42;;;;;;;20.70;8.20;;;;;;;21.59;73.30;100205.09;105804;1276;22560;-72
2022/08/23 02:10:09;;;;;;;15.60;7.90;;;;;;;21.57;73.42;100206.30;105782;1276;22611;-71
2022/08/23 02:12:36;;;;;;;17.30;7.60;;;;;;;21.59;73.53;100212.59;105861;1279;22589;-72
2022/08/23 02:15:10;;;;;;;30.00;8.80;;;;;;;21.57;73.77;100216.81;105930;1279;22563;-71
2022/08/23 02:17:40;;;;;;;21.80;9.00;;;;;;;21.61;73.97;100219.84;105673;1276;22603;-71
2022/08/23 02:20:07;;;;;;;21.90;8.80;;;;;;;21.61;73.92;100218.55;105984;1276;24340;-82
2022/08/23 02:22:34;;;;;;;20.80;8.40;;;;;;;21.57;74.18;100211.28;105596;1277;22580;-70
2022/08/23 02:25:01;;;;;;;19.40;8.70;;;;;;;21.57;74.28;100208.61;105654;1279;24388;-70
2022/08/23 02:27:28;;;;;;;16.20;7.80;;;;;;;21.55;74.45;100203.52;105574;1279;22557;-70
2022/08/23 02:29:54;;;;;;;19.80;8.30;;;;;;;21.55;74.52;100192.39;105604;1277;24414;-71
2022/08/23 02:32:21;;;;;;;17.90;9.00;;;;;;;21.50;74.37;100183.52;105679;1277;22710;-71
2022/08/23 02:34:52;;;;;;;16.90;8.00;;;;;;;21.47;74.73;100174.92;105651;1277;24959;-70
2022/08/23 02:37:33;;;;;;;20.70;9.60;;;;;;;21.44;74.77;100170.27;105484;1276;22723;-71
2022/08/23 02:40:00;;;;;;;17.80;8.10;;;;;;;21.38;75.08;100169.36;105661;1279;24508;-73
2022/08/23 02:42:28;;;;;;;16.10;8.00;;;;;;;21.37;75.61;100167.98;106033;1276;24468;-74
2022/08/23 02:44:54;;;;;;;16.20;8.40;;;;;;;21.38;75.44;100159.33;105524;1281;24412;-74
2022/08/23 02:47:20;;;;;;;18.70;8.30;;;;;;;21.36;75.37;100166.79;105622;1281;22552;-71
2022/08/23 02:50:07;;;;;;;19.40;8.00;;;;;;;21.38;75.66;100168.11;105121;1281;22557;-72
2022/08/23 02:52:35;;;;;;;19.30;8.90;;;;;;;21.39;75.68;100163.58;105611;1281;22544;-73
2022/08/23 02:55:02;;;;;;;15.70;8.00;;;;;;;21.40;75.80;100156.90;105429;1281;25406;-73
2022/08/23 02:57:28;;;;;;;20.20;8.30;;;;;;;21.38;75.82;100149.68;105612;1281;22563;-70
2022/08/23 02:59:58;;;;;;;19.50;8.20;;;;;;;21.37;75.98;100151.01;105523;1281;25385;-72
2022/08/23 03:02:24;;;;;;;16.90;8.20;;;;;;;21.35;76.09;100145.73;105245;1276;22586;-70
2022/08/23 03:04:50;;;;;;;18.10;8.60;;;;;;;21.33;75.94;100147.10;105508;1278;23934;-71
2022/08/23 03:07:18;;;;;;;17.40;9.10;;;;;;;21.34;76.11;100145.63;105549;1279;22566;-71
2022/08/23 03:09:44;;;;;;;16.90;8.30;;;;;;;21.32;76.24;100147.31;105548;1279;23072;-73
2022/08/23 03:12:10;;;;;;;18.80;9.40;;;;;;;21.32;76.40;100143.23;105822;1276;22737;-82
2022/08/23 03:14:40;;;;;;;17.60;8.60;;;;;;;21.37;76.44;100140.77;105898;1279;22791;-74
2022/08/23 03:17:08;;;;;;;18.10;8.80;;;;;;;21.42;76.27;100135.49;105616;1280;22746;-79
2022/08/23 03:19:34;;;;;;;13.40;8.40;;;;;;;21.40;75.98;100134.85;105683;1276;22681;-71
2022/08/23 03:22:01;;;;;;;19.40;9.70;;;;;;;21.40;76.23;100132.02;105832;1276;26515;-73
2022/08/23 03:24:28;;;;;;;18.80;9.20;;;;;;;21.42;76.23;100125.27;105760;1278;25370;-71
2022/08/23 03:26:54;;;;;;;16.10;7.70;;;;;;;21.42;76.01;100127.59;105544;1279;23039;-70
2022/08/23 03:29:21;;;;;;;16.70;8.60;;;;;;;21.39;76.06;100132.39;105878;1276;24412;-71
2022/08/23 03:31:59;;;;;;;18.40;8.80;;;;;;;21.37;76.13;100130.58;105663;1278;25448;-73
2022/08/23 03:34:27;;;;;;;17.20;8.40;;;;;;;21.41;76.36;100136.42;105740;1278;22657;-74
2022/08/23 03:36:55;;;;;;;17.80;8.60;;;;;;;21.39;76.08;100130.27;105822;1276;22743;-71
2022/08/23 03:39:21;;;;;;;16.70;9.00;;;;;;;21.36;76.12;100125.95;105581;1278;25261;-71
2022/08/23 03:41:48;;;;;;;17.70;9.60;;;;;;;21.37;76.44;100128.24;105294;1277;22585;-71
2022/08/23 03:44:14;;;;;;;16.80;8.50;;;;;;;21.35;76.34;100124.56;105467;1276;23026;-72
2022/08/23 03:46:41;;;;;;;16.70;8.90;;;;;;;21.31;76.36;100122.67;105454;1279;25443;-79
2022/08/23 03:49:08;;;;;;;15.70;8.70;;;;;;;21.29;76.48;100120.08;105632;1279;22544;-76
2022/08/23 03:51:48;;;;;;;21.60;8.30;;;;;;;21.24;76.59;100117.88;105901;1276;24637;-75
2022/08/23 03:54:15;;;;;;;14.70;7.20;;;;;;;21.23;76.76;100120.25;106032;1276;23522;-74
2022/08/23 03:57:01;;;;;;;26.10;8.70;;;;;;;21.23;76.79;100118.84;105914;1277;22580;-74
2022/08/23 03:59:32;;;;;;;13.60;7.80;;;;;;;21.23;77.00;100117.36;106097;1276;24461;-75
2022/08/23 04:01:59;;;;;;;16.40;8.90;;;;;;;21.24;76.86;100113.59;106456;1276;24670;-74
2022/08/23 04:04:27;;;;;;;13.00;8.50;;;;;;;21.23;77.00;100110.23;106829;1276;25339;-73
2022/08/23 04:07:19;;;;;;;15.60;7.70;;;;;;;21.21;77.09;100108.89;106571;1276;22541;-81
2022/08/23 04:09:46;;;;;;;14.00;8.70;;;;;;;21.21;77.13;100104.96;106111;1279;22571;-72
2022/08/23 04:12:12;;;;;;;14.30;8.00;;;;;;;21.28;76.95;100104.05;105814;1276;23967;-73
2022/08/23 04:14:44;;;;;;;23.00;9.20;;;;;;;21.28;76.99;100106.50;105966;1276;25267;-72
2022/08/23 04:17:13;;;;;;;17.40;9.80;;;;;;;21.27;76.97;100106.95;105153;1284;22572;-72
2022/08/23 04:19:40;;;;;;;12.10;7.60;;;;;;;21.27;76.90;100111.79;105112;1284;22566;-71
2022/08/23 04:22:13;;;;;;;15.00;8.50;;;;;;;21.25;77.03;100114.03;104969;1284;22553;-73
2022/08/23 04:24:41;;;;;;;16.90;9.10;;;;;;;21.28;77.12;100126.92;105270;1282;26601;-73
2022/08/23 04:27:08;;;;;;;18.10;10.10;;;;;;;21.31;77.18;100123.02;105202;1282;25578;-69
2022/08/23 04:29:34;;;;;;;13.00;8.20;;;;;;;21.33;77.03;100131.89;105097;1284;25758;-69
2022/08/23 04:32:02;;;;;;;14.90;8.50;;;;;;;21.31;77.17;100132.32;105028;1285;26638;-70
2022/08/23 04:34:32;;;;;;;16.00;8.50;;;;;;;21.31;77.24;100136.80;105104;1280;25391;-69
2022/08/23 04:36:59;;;;;;;12.80;8.20;;;;;;;21.30;77.32;100144.42;105684;1277;22656;-70
2022/08/23 04:39:26;;;;;;;15.80;8.70;;;;;;;21.32;77.40;100144.48;105633;1277;25499;-72
2022/08/23 04:44:40;;;;;;;13.80;8.50;;;;;;;21.31;77.54;100158.66;104772;1287;24253;-75
2022/08/23 04:47:07;;;;;;;12.00;8.00;;;;;;;21.30;77.48;100161.38;104766;1288;22780;-73
2022/08/23 04:49:34;;;;;;;13.40;8.20;;;;;;;21.28;77.45;100168.48;104733;1285;24693;-71
2022/08/23 04:52:03;;;;;;;12.50;8.50;;;;;;;21.26;77.77;100169.02;104717;1289;22552;-70
2022/08/23 04:54:30;;;;;;;15.00;8.70;;;;;;;21.18;77.83;100166.58;105124;1285;22671;-73
2022/08/23 04:57:05;;;;;;;13.70;9.30;;;;;;;21.22;77.96;100175.25;104892;1287;22591;-77
2022/08/23 04:59:32;;;;;;;17.80;7.90;;;;;;;21.28;77.90;100181.58;105009;1282;24735;-73
2022/08/23 05:01:58;;;;;;;10.90;7.60;;;;;;;21.32;77.65;100182.78;105295;1282;22546;-74
2022/08/23 05:04:24;;;;;;;11.90;7.90;;;;;;;21.33;77.75;100185.41;105879;1277;24439;-74
2022/08/23 05:06:51;;;;;;;14.50;8.30;;;;;;;21.37;77.79;100179.98;105984;1276;22567;-78
2022/08/23 05:09:17;;;;;;;16.90;8.80;;;;;;;21.40;77.39;100180.16;105866;1277;22567;-71
2022/08/23 05:11:48;;;;;;;12.10;8.00;;;;;;;21.40;77.37;100182.50;105935;1278;24451;-74
2022/08/23 05:14:15;;;;;;;11.90;8.00;;;;;;;21.40;77.29;100186.98;105860;1278;22546;-75
2022/08/23 05:16:41;;;;;;;11.70;8.10;;;;;;;21.42;77.27;100192.44;105807;1278;22745;-73
2022/08/23 05:19:08;;;;;;;11.20;8.20;;;;;;;21.41;77.09;100194.24;105780;1276;25361;-73
2022/08/23 05:21:40;;;;;;;15.00;7.80;;;;;;;21.40;77.26;100188.02;105841;1276;26648;-75
2022/08/23 05:24:07;;;;;;;10.10;7.60;;;;;;;21.41;77.23;100190.15;105847;1279;22580;-75
2022/08/23 05:26:40;;;;;;;12.60;7.90;;;;;;;21.42;77.30;100189.37;105913;1276;22636;-74
2022/08/23 05:29:07;;;;;;;15.10;7.90;;;;;;;21.45;77.09;100196.19;105868;1278;25330;-74
2022/08/23 05:31:37;;;;;;;13.00;8.10;;;;;;;21.48;77.29;100201.54;105346;1284;22623;-75
2022/08/23 05:34:03;;;;;;;12.80;9.50;;;;;;;21.50;77.07;100201.42;105301;1283;22580;-77
2022/08/23 05:36:38;;;;;;;13.10;8.80;;;;;;;21.46;77.01;100193.59;105330;1282;22678;-77
2022/08/23 05:39:14;;;;;;;12.60;8.00;;;;;;;21.46;77.04;100195.05;105371;1282;22575;-73
2022/08/23 05:41:52;;;;;;;15.90;8.50;;;;;;;21.47;77.14;100194.65;105105;1284;26548;-74
2022/08/23 05:44:18;;;;;;;15.90;8.60;;;;;;;21.50;77.08;100196.95;105203;1284;22557;-76
2022/08/23 05:46:47;;;;;;;12.00;8.40;;;;;;;21.54;77.10;100194.59;105038;1287;22557;-74
2022/08/23 05:49:26;;;;;;;11.60;8.10;;;;;;;21.52;76.87;100198.65;105455;1278;25442;-70
2022/08/23 05:51:52;;;;;;;12.60;8.30;;;;;;;21.52;77.11;100207.23;104912;1284;25427;-75
2022/08/23 05:54:20;;;;;;;10.00;7.70;;;;;;;21.58;77.20;100213.51;105145;1284;25350;-77
2022/08/23 05:56:56;;;;;;;19.70;9.60;;;;;;;21.65;77.00;100217.08;105308;1284;25232;-73
2022/08/23 05:59:23;;;;;;;11.00;8.10;;;;;;;21.67;76.88;100216.59;105106;1284;25254;-80
2022/08/23 06:01:50;;;;;;;13.00;8.50;;;;;;;21.72;76.76;100226.55;105143;1284;22576;-78
2022/08/23 06:04:18;;;;;;;8.70;7.50;;;;;;;21.77;76.75;100225.35;105075;1284;22656;-75
2022/08/23 06:06:45;;;;;;;12.60;8.10;;;;;;;21.77;76.53;100230.55;104883;1285;22576;-73
2022/08/23 06:09:15;;;;;;;12.80;7.70;;;;;;;21.80;76.69;100233.99;104855;1287;24342;-73
2022/08/23 06:11:44;;;;;;;11.60;8.10;;;;;;;21.82;76.66;100235.46;105084;1284;22547;-72
2022/08/23 06:14:11;;;;;;;13.70;8.10;;;;;;;21.88;76.59;100234.95;105014;1284;23730;-72
2022/08/23 06:16:42;;;;;;;12.10;8.70;;;;;;;21.93;76.38;100237.01;105470;1278;22769;-74
2022/08/23 06:19:12;;;;;;;9.90;7.50;;;;;;;21.97;76.43;100237.45;105611;1278;22573;-75
2022/08/23 06:21:49;;;;;;;12.20;8.40;;;;;;;22.04;76.47;100239.40;105927;1277;22656;-72
2022/08/23 06:24:22;;;;;;;13.30;7.90;;;;;;;22.11;76.24;100239.52;105068;1284;25505;-74
2022/08/23 06:26:52;;;;;;;13.00;9.00;;;;;;;22.17;76.31;100236.97;105085;1284;22619;-74
2022/08/23 06:29:19;;;;;;;12.10;8.40;;;;;;;22.21;75.89;100238.04;104911;1284;22714;-75
2022/08/23 06:31:50;;;;;;;12.10;8.30;;;;;;;22.23;75.97;100242.39;105044;1284;22618;-73
2022/08/23 06:34:33;;;;;;;13.50;8.00;;;;;;;22.30;75.94;100244.48;105106;1284;22701;-74
2022/08/23 06:37:20;;;;;;;16.00;8.60;;;;;;;22.36;75.80;100247.92;104731;1285;22541;-74
2022/08/23 06:40:04;;;;;;;15.80;8.90;;;;;;;22.41;75.89;100250.28;105121;1284;22575;-74
2022/08/23 06:42:43;;;;;;;11.90;7.70;;;;;;;22.46;75.75;100254.45;105067;1284;22594;-75
2022/08/23 06:45:09;;;;;;;17.80;8.20;;;;;;;22.53;75.60;100255.82;104894;1289;25302;-74
2022/08/23 06:47:39;;;;;;;12.40;8.30;;;;;;;22.61;75.68;100254.42;104966;1287;22574;-71
2022/08/23 06:50:05;;;;;;;16.00;7.90;;;;;;;22.69;75.62;100255.46;105524;1280;22544;-73
2022/08/23 06:53:04;;;;;;;11.40;8.80;;;;;;;22.74;75.47;100260.10;105299;1278;22827;-73
2022/08/23 06:55:55;;;;;;;12.00;7.70;;;;;;;22.81;75.65;100259.00;105982;1276;26693;-76
2022/08/23 06:58:52;;;;;;;13.00;7.40;;;;;;;22.92;75.09;100257.45;105315;1281;24003;-71
2022/08/23 07:01:47;;;;;;;12.00;7.00;;;;;;;23.00;74.78;100257.41;105498;1281;24405;-73
2022/08/23 07:04:27;;;;;;;14.40;7.60;;;;;;;23.10;74.59;100258.96;105485;1281;24541;-73
2022/08/23 07:07:13;;;;;;;10.80;8.00;;;;;;;23.17;74.46;100260.70;105704;1281;25233;-75
2022/08/23 07:09:40;;;;;;;15.60;7.30;;;;;;;23.18;73.98;100255.90;104505;1281;26518;-73
2022/08/23 07:12:07;;;;;;;19.80;8.10;;;;;;;23.22;73.86;100259.45;105441;1284;24292;-74
2022/08/23 07:14:36;;;;;;;11.20;6.70;;;;;;;23.28;73.73;100255.89;105182;1281;22627;-72
2022/08/23 07:17:03;;;;;;;14.50;7.10;;;;;;;23.35;73.93;100249.10;105454;1278;22630;-73
2022/08/23 07:19:34;;;;;;;11.90;6.80;;;;;;;23.42;73.67;100248.30;105955;1278;22590;-74
2022/08/23 07:22:01;;;;;;;13.60;6.90;;;;;;;23.47;73.39;100241.02;105814;1277;22765;-73
2022/08/23 07:24:30;;;;;;;13.30;7.70;;;;;;;23.55;73.39;100244.46;105790;1276;25398;-73
2022/08/23 07:27:05;;;;;;;16.90;7.60;;;;;;;23.58;73.18;100243.67;105769;1277;22541;-72
2022/08/23 07:29:38;;;;;;;13.90;7.10;;;;;;;23.61;73.09;100251.05;105864;1278;23402;-75
2022/08/23 07:32:05;;;;;;;15.10;7.50;;;;;;;23.68;73.00;100255.77;105454;1278;25259;-72
2022/08/23 07:34:32;;;;;;;18.20;8.10;;;;;;;23.69;72.77;100249.45;105760;1278;22969;-73
2022/08/23 07:37:00;;;;;;;11.90;8.20;;;;;;;23.71;72.75;100245.89;105917;1277;24673;-73
2022/08/23 07:39:26;;;;;;;19.00;7.60;;;;;;;23.80;73.01;100249.08;105784;1277;24293;-72
2022/08/23 07:41:53;;;;;;;9.20;7.00;;;;;;;23.87;72.73;100248.23;105925;1278;24824;-75
2022/08/23 07:44:20;;;;;;;15.40;7.60;;;;;;;23.94;72.54;100244.93;105992;1277;26635;-73
2022/08/23 07:46:53;;;;;;;18.10;8.20;;;;;;;24.01;72.66;100247.90;106292;1277;22555;-74
2022/08/23 07:49:19;;;;;;;15.20;7.50;;;;;;;24.06;72.42;100252.73;106494;1277;23956;-74
2022/08/23 07:51:50;;;;;;;15.00;7.40;;;;;;;24.11;72.43;100249.50;106619;1276;22575;-71
2022/08/23 07:54:20;;;;;;;21.20;8.30;;;;;;;24.16;72.11;100248.13;106668;1278;22717;-73
2022/08/23 07:56:58;;;;;;;13.00;7.40;;;;;;;24.21;71.96;100249.38;106688;1278;24322;-73
2022/08/23 07:59:42;;;;;;;15.60;7.50;;;;;;;24.28;71.97;100255.58;106965;1277;22882;-73
2022/08/23 08:02:26;;;;;;;17.10;7.70;;;;;;;24.38;71.72;100255.64;106290;1277;25373;-71
2022/08/23 08:04:53;;;;;;;12.90;6.90;;;;;;;24.48;71.66;100254.02;105900;1278;22730;-75
2022/08/23 08:07:20;;;;;;;13.20;8.20;;;;;;;24.56;71.40;100255.31;105905;1278;25262;-76
2022/08/23 08:09:54;;;;;;;13.90;6.90;;;;;;;24.62;71.40;100258.13;105989;1277;22656;-78
2022/08/23 08:12:21;;;;;;;14.20;7.70;;;;;;;24.71;71.33;100259.46;105883;1277;25260;-73
2022/08/23 08:14:49;;;;;;;13.10;7.80;;;;;;;24.80;71.11;100257.98;105955;1277;25351;-74
2022/08/23 08:17:17;;;;;;;11.00;7.20;;;;;;;24.91;71.06;100255.73;105775;1277;25255;-73
2022/08/23 08:20:07;;;;;;;11.40;7.10;;;;;;;25.04;70.76;100254.98;105719;1278;22556;-73
2022/08/23 08:22:34;;;;;;;14.70;7.50;;;;;;;25.21;70.82;100256.84;105670;1277;22492;-73
2022/08/23 08:25:09;;;;;;;14.50;7.50;;;;;;;25.42;70.31;100254.79;105497;1278;25644;-73
2022/08/23 08:27:37;;;;;;;18.50;7.50;;;;;;;25.61;70.04;100246.89;105760;1276;23161;-73
2022/08/23 08:30:06;;;;;;;11.10;7.90;;;;;;;25.78;69.84;100252.73;105276;1282;25373;-75
2022/08/23 08:32:33;;;;;;;13.90;7.70;;;;;;;25.86;69.01;100254.42;105280;1284;25301;-73
2022/08/23 08:34:59;;;;;;;16.10;7.60;;;;;;;25.92;68.73;100254.49;105306;1282;25245;-73
2022/08/23 08:37:27;;;;;;;16.00;7.10;;;;;;;26.00;68.39;100253.45;105071;1282;22523;-73
2022/08/23 08:39:54;;;;;;;18.50;7.70;;;;;;;26.02;68.31;100255.97;105245;1284;22585;-75
2022/08/23 08:42:44;;;;;;;14.10;6.80;;;;;;;26.05;68.12;100253.23;105213;1284;22569;-77
2022/08/23 08:45:26;;;;;;;13.90;7.30;;;;;;;26.03;67.79;100256.57;105116;1284;26244;-74
2022/08/23 08:48:13;;;;;;;15.40;7.50;;;;;;;26.02;67.93;100256.90;105602;1277;22547;-75
2022/08/23 08:50:52;;;;;;;12.70;7.70;;;;;;;26.01;67.93;100256.36;105817;1276;22729;-77
2022/08/23 08:53:33;;;;;;;15.40;7.90;;;;;;;26.04;67.86;100256.20;105969;1277;22522;-75
2022/08/23 08:56:19;;;;;;;14.40;7.70;;;;;;;26.11;67.85;100256.71;105877;1276;23137;-78
2022/08/23 08:58:52;;;;;;;11.30;7.10;;;;;;;26.14;67.60;100256.86;105984;1276;22572;-73
2022/08/23 09:01:21;;;;;;;19.40;8.10;;;;;;;26.16;67.54;100254.71;105877;1276;22541;-76
2022/08/23 09:03:49;;;;;;;12.90;7.10;;;;;;;26.29;67.57;100261.16;105791;1277;25250;-77
2022/08/23 09:06:33;;;;;;;14.60;7.50;;;;;;;26.40;67.41;100263.40;105781;1277;23791;-70
2022/08/23 09:09:33;;;;;;;14.70;7.00;;;;;;;26.47;67.31;100262.86;105756;1277;22571;-72
2022/08/23 09:12:18;;;;;;;18.60;6.90;;;;;;;26.60;67.06;100258.98;105575;1278;22547;-73
2022/08/23 09:14:51;;;;;;;12.60;7.80;;;;;;;26.71;67.10;100256.64;105863;1276;22554;-71
2022/08/23 09:17:23;;;;;;;16.30;7.40;;;;;;;26.81;66.73;100259.64;105816;1276;24307;-73
2022/08/23 09:19:56;;;;;;;18.90;7.80;;;;;;;26.99;66.61;100255.18;105486;1279;22578;-73
2022/08/23 09:22:32;;;;;;;15.20;7.80;;;;;;;27.13;66.42;100252.20;105905;1276;24394;-73
2022/08/23 09:24:58;;;;;;;17.20;7.70;;;;;;;27.23;66.08;100255.41;105861;1276;27082;-73
2022/08/23 09:27:30;;;;;;;18.70;7.00;;;;;;;27.32;65.99;100255.45;105663;1278;25261;-74
2022/08/23 09:30:00;;;;;;;16.10;7.40;;;;;;;27.40;65.66;100256.91;106031;1278;22549;-72
2022/08/23 09:32:32;;;;;;;13.50;6.80;;;;;;;27.55;65.39;100252.61;105987;1276;22554;-74
2022/08/23 09:35:17;;;;;;;19.30;7.50;;;;;;;27.71;64.89;100251.89;105779;1276;22763;-73
2022/08/23 09:38:03;;;;;;;21.30;8.20;;;;;;;27.85;64.77;100253.08;105946;1276;22565;-74
2022/08/23 09:40:43;;;;;;;16.30;7.50;;;;;;;27.95;64.68;100251.16;105884;1278;22549;-75
2022/08/23 09:43:18;;;;;;;15.70;7.10;;;;;;;28.02;64.22;100254.35;106000;1276;22541;-75
2022/08/23 09:45:47;;;;;;;15.60;7.70;;;;;;;28.07;63.90;100253.41;105941;1276;22577;-75
2022/08/23 09:48:30;;;;;;;17.50;7.60;;;;;;;28.21;63.66;100245.83;105221;1282;22751;-73
2022/08/23 09:51:06;;;;;;;15.70;7.40;;;;;;;28.54;63.25;100248.47;105228;1282;24390;-74
2022/08/23 09:53:33;;;;;;;15.30;7.60;;;;;;;28.77;62.76;100249.95;105253;1282;22674;-75
2022/08/23 09:56:15;;;;;;;16.70;6.80;;;;;;;28.92;62.14;100247.58;105352;1284;25292;-73
2022/08/23 09:58:45;;;;;;;19.60;8.50;;;;;;;29.16;61.86;100251.41;105375;1282;26596;-79
2022/08/23 10:01:24;;;;;;;13.20;7.10;;;;;;;29.41;61.55;100248.63;105082;1284;24882;-74
2022/08/23 10:04:35;;;;;;;15.00;7.60;;;;;;;29.63;61.09;100244.80;105190;1282;22587;-71
2022/08/23 10:07:26;;;;;;;18.20;7.80;;;;;;;29.87;60.47;100243.90;105552;1276;22563;-78
2022/08/23 10:10:23;;;;;;;17.20;7.30;;;;;;;30.00;59.79;100243.79;106018;1277;22563;-71
2022/08/23 10:12:51;;;;;;;17.60;7.90;;;;;;;30.16;59.03;100240.14;105973;1276;26504;-74
2022/08/23 10:15:38;;;;;;;19.40;7.70;;;;;;;30.19;58.72;100246.80;105885;1277;24265;-73
2022/08/23 10:18:15;;;;;;;21.00;8.00;;;;;;;30.23;58.53;100239.34;105558;1278;26492;-71
2022/08/23 10:21:28;;;;;;;18.10;7.00;;;;;;;30.37;58.56;100242.77;105884;1278;25478;-79
2022/08/23 10:24:21;;;;;;;16.80;6.80;;;;;;;30.59;58.28;100241.73;105573;1278;23082;-76
2022/08/23 10:30:17;;;;;;;13.70;6.50;;;;;;;30.64;57.22;100237.58;106021;1276;25697;-71
2022/08/23 10:33:17;;;;;;;21.40;6.30;;;;;;;30.69;57.39;100237.50;105823;1277;25268;-76
2022/08/23 10:36:19;;;;;;;20.20;7.60;;;;;;;30.74;57.04;100237.73;105993;1277;25217;-70
2022/08/23 10:38:46;;;;;;;18.20;7.40;;;;;;;30.73;56.33;100233.10;105899;1276;25921;-75
2022/08/23 10:41:37;;;;;;;15.80;6.60;;;;;;;30.74;56.06;100233.02;106004;1276;25448;-77
2022/08/23 10:44:03;;;;;;;23.50;7.00;;;;;;;30.76;55.79;100235.90;105891;1276;24199;-76
2022/08/23 10:46:36;;;;;;;17.50;6.70;;;;;;;30.92;55.90;100230.42;105771;1276;22617;-75
2022/08/23 10:49:06;;;;;;;22.30;6.70;;;;;;;31.20;55.30;100229.45;105922;1276;25277;-77
2022/08/23 10:51:39;;;;;;;19.10;5.90;;;;;;;31.45;54.75;100229.02;105891;1276;22544;-76
2022/08/23 10:54:33;;;;;;;16.70;6.70;;;;;;;31.71;54.04;100224.86;105870;1276;22641;-73
2022/08/23 10:57:02;;;;;;;15.60;5.80;;;;;;;31.92;53.46;100221.80;105368;1281;25502;-72
2022/08/23 10:59:31;;;;;;;16.30;6.40;;;;;;;32.10;52.34;100224.73;105241;1281;25274;-70
2022/08/23 11:02:16;;;;;;;26.10;6.80;;;;;;;32.25;52.03;100224.30;105352;1281;22572;-72
2022/08/23 11:05:01;;;;;;;26.60;5.60;;;;;;;32.42;50.95;100222.17;105488;1281;25275;-74
2022/08/23 11:07:33;;;;;;;15.20;5.50;;;;;;;32.55;49.75;100227.95;105361;1282;25265;-72
2022/08/23 11:10:43;;;;;;;21.10;5.30;;;;;;;32.59;49.17;100216.73;105383;1281;25381;-75
2022/08/23 11:13:26;;;;;;;22.20;5.60;;;;;;;32.72;47.73;100219.08;105248;1281;25374;-72
2022/08/23 11:16:05;;;;;;;21.70;5.30;;;;;;;32.65;47.76;100215.90;105699;1276;22673;-74
2022/08/23 11:18:46;;;;;;;15.60;5.60;;;;;;;32.63;47.44;100217.80;105602;1276;25343;-74
2022/08/23 11:21:17;;;;;;;17.70;5.00;;;;;;;32.74;46.93;100217.75;105590;1277;22534;-74
2022/08/23 11:24:13;;;;;;;25.70;4.90;;;;;;;32.89;46.34;100213.23;105145;1284;25339;-74
2022/08/23 11:26:45;;;;;;;28.70;5.70;;;;;;;33.01;45.58;100218.70;105012;1284;24389;-73
2022/08/23 11:29:23;;;;;;;21.40;5.50;;;;;;;32.88;44.99;100219.15;105124;1284;25480;-73
2022/08/23 11:32:04;;;;;;;24.00;5.40;;;;;;;32.62;44.49;100218.64;105014;1284;23050;-74
2022/08/23 11:34:31;;;;;;;19.90;5.30;;;;;;;32.40;44.64;100215.91;105100;1284;22613;-74
2022/08/23 11:37:18;;;;;;;19.80;5.70;;;;;;;32.27;44.98;100213.69;105056;1284;22551;-76
2022/08/23 11:39:56;;;;;;;18.80;4.80;;;;;;;32.40;44.50;100214.14;105041;1284;23006;-76
2022/08/23 11:42:42;;;;;;;26.50;5.50;;;;;;;32.63;44.58;100220.17;105229;1282;22581;-75
2022/08/23 11:45:34;;;;;;;21.10;5.00;;;;;;;32.85;44.12;100218.20;105751;1282;22639;-74
2022/08/23 11:48:12;;;;;;;24.90;5.10;;;;;;;33.04;43.75;100220.27;105702;1282;25286;-73
2022/08/23 11:51:05;;;;;;;21.50;4.60;;;;;;;33.21;43.01;100218.48;105527;1282;23938;-76